SBOSBO PMO / LICJ
Speedbird OnlineSpeedbird Online PMO / LICJ

Falcone–Borsellino Airport
00:39 19°C

Location Palermo, Italy
Latitude: 38.175999
Longitude: 13.091
Local Time 00:39 on 26 May 2024
UTC +2 hours (Europe/Rome)
Currency £1 equals EUR 1.17
METAR LICJ 252220Z 05007KT CAVOK 19/16 Q1017
TAF TAF LICJ 251700Z 2518/2618 05012KT 9999 FEW040 BECMG 2522/2524 VRB05KT BECMG 2606/2608 02012KT
Weather As Of 26 May 2024 00:39
Description Clear sky
Wind 13 km/h from North-East (50°)
Cloud Cover 0%
Precipitation Rain: none, Snow: none
Sunrise 05:49
Sunset 20:20
NOTAM 18 active NOTAM
Rotations During the last 90 days there were
34 flights from LHR
36 flights to LHR
Lounges Sala VIP GESAP (Temporarily Closed), Main Terminal
Web Airport Website | Wikipedia
Codes IATA: PMO
ICAO: LICJ
Altitude 20 Meter / 65 Feet
Distance 1,794 KM / 1,115 Miles
from London.
Runways
RunwayLength (m)Surface
022074Asphalt
073326Asphalt
202074Asphalt
253326Asphalt
Radio
TypeDescriptionFrequency
APPAPP120.2
GNDRAISI GND121.625
TWRRAISI TWR119.05
Live ATC



Support Speedbird Online

© 2017-2024 Speedbird Online